createdAt,value
2023-02-18T00:01:06.064Z,98414.77
2023-02-18T00:04:18.098Z,98431.02
2023-02-18T00:07:29.996Z,98417.06
2023-02-18T00:10:44.229Z,98413.24
2023-02-18T00:14:00.341Z,98410.30
2023-02-18T00:17:12.235Z,98397.02
2023-02-18T00:20:24.479Z,98413.41
2023-02-18T00:23:36.800Z,98413.12
2023-02-18T00:26:49.818Z,98411.14
2023-02-18T00:30:05.885Z,98401.20
2023-02-18T00:33:18.491Z,98402.49
2023-02-18T00:36:31.709Z,98392.31
2023-02-18T00:39:44.344Z,98398.77
2023-02-18T00:42:56.731Z,98396.11
2023-02-18T00:46:09.430Z,98398.55
2023-02-18T00:49:22.563Z,98399.59
2023-02-18T00:52:34.719Z,98407.11
2023-02-18T00:55:49.268Z,98400.56
2023-02-18T00:59:01.573Z,98393.80
2023-02-18T01:02:13.648Z,98400.77
2023-02-18T01:05:26.149Z,98410.09
2023-02-18T01:08:40.527Z,98415.11
2023-02-18T01:11:52.607Z,98414.95
2023-02-18T01:15:04.749Z,98422.47
2023-02-18T01:18:17.736Z,98433.39
2023-02-18T01:21:29.811Z,98460.91
2023-02-18T01:24:46.320Z,98476.02
2023-02-18T01:27:58.789Z,98502.04
2023-02-18T01:31:16.195Z,98479.62
2023-02-18T01:34:28.539Z,98514.50
2023-02-18T01:37:40.812Z,98511.59
2023-02-18T01:40:58.150Z,98506.59
2023-02-18T01:44:25.600Z,98508.15
2023-02-18T01:47:37.858Z,98497.02
2023-02-18T01:50:55.772Z,98505.94
2023-02-18T01:54:13.064Z,98512.63
2023-02-18T01:57:30.193Z,98517.67
2023-02-18T02:00:42.292Z,98518.13
2023-02-18T02:03:54.436Z,98519.40
2023-02-18T02:07:06.674Z,98501.11
2023-02-18T02:10:21.140Z,98528.90
2023-02-18T02:13:41.930Z,98504.64
2023-02-18T02:17:01.401Z,98521.94
2023-02-18T02:20:52.202Z,98521.05
2023-02-18T02:25:06.867Z,98510.70
2023-02-18T02:29:07.155Z,98517.13
2023-02-18T02:32:40.107Z,98533.63
2023-02-18T02:35:56.304Z,98531.01
2023-02-18T02:39:15.848Z,98519.17
2023-02-18T02:42:37.750Z,98539.00
2023-02-18T02:45:59.523Z,98533.84
2023-02-18T02:49:20.215Z,98541.11
2023-02-18T02:52:36.915Z,98527.00
2023-02-18T02:55:49.023Z,98538.16
2023-02-18T02:59:09.280Z,98544.72
2023-02-18T03:02:34.575Z,98558.13
2023-02-18T03:05:57.731Z,98558.97
2023-02-18T03:09:17.331Z,98578.64
2023-02-18T03:12:37.250Z,98583.10
2023-02-18T03:15:55.521Z,98584.25
2023-02-18T03:19:14.833Z,98577.25
2023-02-18T03:22:31.674Z,98591.92
2023-02-18T03:25:46.522Z,98598.73
2023-02-18T03:29:02.397Z,98595.28
2023-02-18T03:32:18.209Z,98601.14
2023-02-18T03:35:42.812Z,98604.20
2023-02-18T03:39:00.675Z,98608.51
2023-02-18T03:42:13.516Z,98602.66
2023-02-18T03:45:25.784Z,98607.41
2023-02-18T03:48:37.975Z,98612.96
2023-02-18T03:51:50.960Z,98612.27
2023-02-18T03:55:04.100Z,98629.41
2023-02-18T03:58:16.286Z,98617.70
2023-02-18T04:01:29.068Z,98614.91
2023-02-18T04:04:41.183Z,98627.75
2023-02-18T04:07:53.374Z,98638.05
2023-02-18T04:14:05.493Z,98629.38
2023-02-18T04:17:18.056Z,98638.31
2023-02-18T04:34:27.727Z,98645.06
2023-02-18T04:37:39.781Z,98630.14
2023-02-18T04:40:51.847Z,98634.72
2023-02-18T04:44:04.050Z,98632.53
2023-02-18T04:47:16.434Z,98632.08
2023-02-18T04:50:29.296Z,98633.77
2023-02-18T04:53:41.327Z,98627.48
2023-02-18T04:56:53.398Z,98637.13
2023-02-18T05:00:06.823Z,98634.10
2023-02-18T05:03:19.016Z,98635.91
2023-02-18T05:06:30.967Z,98628.11
2023-02-18T05:09:43.022Z,98647.76
2023-02-18T05:12:55.152Z,98661.14
2023-02-18T05:16:08.177Z,98655.00
2023-02-18T05:19:25.279Z,98661.68
2023-02-18T05:22:37.376Z,98656.36
2023-02-18T05:25:49.293Z,98674.01
2023-02-18T05:29:01.293Z,98653.22
2023-02-18T05:32:13.894Z,98663.49
2023-02-18T05:35:26.056Z,98662.36
2023-02-18T05:38:38.014Z,98664.30
2023-02-18T05:41:49.890Z,98680.17
2023-02-18T05:45:01.844Z,98673.75
2023-02-18T05:48:14.091Z,98677.83
2023-02-18T05:51:26.184Z,98676.28
2023-02-18T05:54:39.242Z,98682.69
2023-02-18T05:57:51.397Z,98689.27
2023-02-18T06:01:03.341Z,98677.63
2023-02-18T06:04:15.430Z,98694.64
2023-02-18T06:07:27.451Z,98701.86
2023-02-18T06:10:39.669Z,98701.16
2023-02-18T06:13:51.835Z,98703.34
2023-02-18T06:17:03.810Z,98704.28
2023-02-18T06:20:18.527Z,98703.58
2023-02-18T06:23:30.471Z,98696.48
2023-02-18T06:26:42.595Z,98688.20
2023-02-18T06:29:54.923Z,98690.19
2023-02-18T06:33:08.005Z,98686.03
2023-02-18T06:36:20.636Z,98692.22
2023-02-18T06:39:33.100Z,98698.67
2023-02-18T06:42:46.033Z,98700.91
2023-02-18T06:46:05.103Z,98707.33
2023-02-18T06:49:18.307Z,98705.95
2023-02-18T06:52:34.533Z,98707.36
2023-02-18T06:55:47.894Z,98709.20
2023-02-18T06:59:02.653Z,98707.96
2023-02-18T07:02:17.260Z,98714.11
2023-02-18T07:05:29.669Z,98710.22
2023-02-18T07:08:42.390Z,98714.67
2023-02-18T07:11:54.519Z,98712.73
2023-02-18T07:15:06.672Z,98710.64
2023-02-18T07:18:20.228Z,98720.30
2023-02-18T07:21:37.393Z,98723.12
2023-02-18T07:24:50.998Z,98727.43
2023-02-18T07:28:03.200Z,98738.03
2023-02-18T07:31:16.432Z,98728.42
2023-02-18T07:34:28.853Z,98720.08
2023-02-18T07:37:41.218Z,98718.67
2023-02-18T07:40:54.435Z,98714.47
2023-02-18T07:44:06.783Z,98704.72
2023-02-18T07:47:23.007Z,98706.94
2023-02-18T07:50:37.270Z,98662.41
2023-02-18T07:53:49.664Z,98694.14
2023-02-18T07:57:02.174Z,98704.73
2023-02-18T08:00:18.112Z,98696.64
2023-02-18T08:03:32.932Z,98691.48
2023-02-18T08:06:48.236Z,98687.99
2023-02-18T08:10:00.713Z,98688.15
2023-02-18T08:13:12.948Z,98701.70
2023-02-18T08:16:26.752Z,98706.56
2023-02-18T08:19:38.763Z,98712.55
2023-02-18T08:22:51.006Z,98701.41
2023-02-18T08:26:03.084Z,98713.95
2023-02-18T08:29:15.169Z,98710.59
2023-02-18T08:32:27.722Z,98715.75
2023-02-18T08:35:40.149Z,98720.80
2023-02-18T08:38:52.987Z,98728.19
2023-02-18T08:42:07.003Z,98712.00
2023-02-18T08:45:19.248Z,98716.61
2023-02-18T08:48:33.309Z,98711.76
2023-02-18T08:51:45.737Z,98722.22
2023-02-18T08:54:58.177Z,98719.16
2023-02-18T08:58:12.141Z,98710.07
2023-02-18T09:04:25.513Z,98718.47
2023-02-18T09:07:38.014Z,98715.53
2023-02-18T09:10:57.788Z,98715.41
2023-02-18T09:17:10.129Z,98721.53
2023-02-18T09:23:23.999Z,98736.48
2023-02-18T09:26:36.044Z,98743.43
2023-02-18T09:29:49.776Z,98734.08
2023-02-18T09:33:02.314Z,98741.07
2023-02-18T09:36:17.419Z,98735.48
2023-02-18T09:39:30.499Z,98732.13
2023-02-18T09:42:42.813Z,98731.87
2023-02-18T09:45:55.925Z,98734.67
2023-02-18T09:49:13.627Z,98721.42
2023-02-18T09:52:33.219Z,98710.38
2023-02-18T09:55:47.447Z,98720.57
2023-02-18T09:59:00.491Z,98722.23
2023-02-18T10:02:20.016Z,98717.22
2023-02-18T10:05:35.725Z,98719.31
2023-02-18T10:08:52.061Z,98696.01
2023-02-18T10:12:09.504Z,98698.36
2023-02-18T10:15:29.179Z,98681.61
2023-02-18T10:21:42.703Z,98682.60
2023-02-18T10:25:01.888Z,98664.61
2023-02-18T10:37:26.556Z,98650.09
2023-02-18T10:40:49.960Z,98649.66
2023-02-18T10:44:10.459Z,98665.59
2023-02-18T10:47:32.331Z,98640.33
2023-02-18T10:50:48.821Z,98667.14
2023-02-18T10:54:02.082Z,98678.84
2023-02-18T10:57:22.305Z,98664.75
2023-02-18T11:00:40.697Z,98655.13
2023-02-18T11:03:56.576Z,98646.19
2023-02-18T11:07:16.375Z,98633.22
2023-02-18T11:10:33.978Z,98636.42
2023-02-18T11:13:51.257Z,98628.63
2023-02-18T11:17:14.257Z,98625.52
2023-02-18T11:20:41.570Z,98618.02
2023-02-18T11:26:54.344Z,98628.73
2023-02-18T11:30:12.039Z,98616.46
2023-02-18T11:33:29.176Z,98616.05
2023-02-18T11:36:42.844Z,98598.88
2023-02-18T11:39:59.328Z,98606.84
2023-02-18T11:43:16.968Z,98615.91
2023-02-18T11:46:32.234Z,98608.95
2023-02-18T11:49:45.381Z,98607.14
2023-02-18T11:52:59.950Z,98597.36
2023-02-18T11:56:22.636Z,98607.80
2023-02-18T11:59:38.670Z,98607.63
2023-02-18T12:02:51.216Z,98603.42
2023-02-18T12:06:08.117Z,98612.03
2023-02-18T12:09:31.629Z,98607.92
2023-02-18T12:12:50.081Z,98601.50
2023-02-18T12:16:10.534Z,98593.78
2023-02-18T12:19:46.492Z,98588.42
2023-02-18T12:23:05.102Z,98598.05
2023-02-18T12:26:25.940Z,98592.58
2023-02-18T12:29:59.219Z,98587.28
2023-02-18T12:33:20.073Z,98579.77
2023-02-18T12:36:41.315Z,98579.45
2023-02-18T12:40:11.271Z,98579.63
2023-02-18T12:43:34.232Z,98568.05
2023-02-18T12:47:03.441Z,98551.39
2023-02-18T12:50:57.424Z,98537.31
2023-02-18T12:54:35.234Z,98531.77
2023-02-18T12:57:49.396Z,98532.72
2023-02-18T13:01:29.016Z,98524.23
2023-02-18T13:04:58.636Z,98521.43
2023-02-18T13:08:30.059Z,98502.66
2023-02-18T13:11:51.129Z,98491.20
2023-02-18T13:15:09.564Z,98488.00
2023-02-18T13:18:26.678Z,98487.72
2023-02-18T13:21:40.721Z,98474.77
2023-02-18T13:24:55.613Z,98472.78
2023-02-18T13:28:14.496Z,98473.72
2023-02-18T13:31:43.552Z,98473.39
2023-02-18T13:35:01.713Z,98459.47
2023-02-18T13:38:53.671Z,98444.84
2023-02-18T13:42:42.158Z,98435.65
2023-02-18T13:46:15.361Z,98436.20
2023-02-18T13:49:30.777Z,98438.52
2023-02-18T13:52:44.292Z,98421.53
2023-02-18T13:56:03.041Z,98421.75
2023-02-18T13:59:24.978Z,98407.61
2023-02-18T14:02:42.969Z,98400.92
2023-02-18T14:09:47.534Z,98385.60
2023-02-18T14:13:25.107Z,98370.00
2023-02-18T14:16:56.742Z,98351.64
2023-02-18T14:20:53.297Z,98342.70
2023-02-18T14:24:08.661Z,98334.08
2023-02-18T14:27:23.744Z,98304.85
2023-02-18T14:30:40.452Z,98333.83
2023-02-18T14:33:58.987Z,98310.44
2023-02-18T14:37:30.506Z,98305.44
2023-02-18T14:46:53.755Z,98271.05
2023-02-18T14:50:10.438Z,98275.94
2023-02-18T14:53:26.795Z,98272.04
2023-02-18T14:56:44.052Z,98256.75
2023-02-18T14:59:54.968Z,98253.97
2023-02-18T15:03:08.844Z,98245.63
2023-02-18T15:06:37.625Z,98238.41
2023-02-18T15:09:57.605Z,98228.09
2023-02-18T15:13:12.801Z,98237.54
2023-02-18T15:16:31.637Z,98215.27
2023-02-18T15:22:46.121Z,98231.00
2023-02-18T15:26:00.078Z,98184.97
2023-02-18T15:42:05.245Z,98153.72
2023-02-18T15:45:25.883Z,98151.63
2023-02-18T15:48:44.144Z,98135.34
2023-02-18T15:52:08.785Z,98132.98
2023-02-18T15:58:25.860Z,98106.29
2023-02-18T16:01:38.206Z,98092.80
2023-02-18T16:05:05.429Z,98099.06
2023-02-18T16:08:29.046Z,98080.98
2023-02-18T16:11:45.948Z,98077.34
2023-02-18T16:15:00.903Z,98073.22
2023-02-18T16:18:29.707Z,98078.63
2023-02-18T16:33:51.944Z,98043.20
2023-02-18T16:37:18.898Z,98051.83
2023-02-18T16:40:38.080Z,98041.86
2023-02-18T16:49:52.446Z,98037.56
2023-02-18T17:08:28.672Z,98048.02
2023-02-18T17:11:42.652Z,98056.45
2023-02-18T17:14:54.904Z,98046.67
2023-02-18T17:18:07.170Z,98047.48
2023-02-18T17:21:21.714Z,98041.06
2023-02-18T17:24:34.176Z,98035.97
2023-02-18T17:27:48.333Z,98052.03
2023-02-18T17:31:03.153Z,98043.28
2023-02-18T17:34:20.642Z,98052.60
2023-02-18T17:37:32.799Z,98043.25
2023-02-18T17:40:45.269Z,98045.88
2023-02-18T17:43:57.578Z,98041.33
2023-02-18T17:47:09.958Z,98041.91
2023-02-18T17:50:23.151Z,98038.63
2023-02-18T17:53:35.447Z,98045.80
2023-02-18T17:56:48.084Z,98043.21
2023-02-18T18:00:00.193Z,98032.61
2023-02-18T18:03:14.294Z,98039.09
2023-02-18T18:06:28.157Z,98048.92
2023-02-18T18:09:40.459Z,98056.25
2023-02-18T18:12:53.261Z,98066.34
2023-02-18T18:16:06.087Z,98073.41
2023-02-18T18:19:18.310Z,98083.28
2023-02-18T18:25:34.118Z,98076.63
2023-02-18T18:59:44.301Z,98120.14
2023-02-18T20:11:53.007Z,98192.47
2023-02-18T20:15:08.163Z,98195.56
2023-02-18T22:05:18.578Z,98394.41
2023-02-18T22:11:30.883Z,98401.50
2023-02-18T22:14:43.503Z,98407.23
2023-02-18T22:17:56.406Z,98408.89
2023-02-18T22:21:12.977Z,98423.92
2023-02-18T22:24:27.573Z,98405.84
2023-02-18T22:27:39.913Z,98416.93
2023-02-18T22:30:51.887Z,98427.25
2023-02-18T22:34:05.830Z,98418.59
2023-02-18T22:37:18.083Z,98438.54
2023-02-18T22:40:30.288Z,98440.23
2023-02-18T22:43:42.669Z,98456.91
2023-02-18T22:46:55.024Z,98462.60
2023-02-18T22:50:08.041Z,98467.59
2023-02-18T22:53:20.087Z,98463.69
2023-02-18T22:56:34.284Z,98468.69
2023-02-18T22:59:46.259Z,98472.58
2023-02-18T23:02:59.440Z,98469.08
2023-02-18T23:06:13.368Z,98478.26
2023-02-18T23:09:28.295Z,98481.75
2023-02-18T23:12:40.305Z,98483.83
2023-02-18T23:16:01.155Z,98462.51
2023-02-18T23:19:13.486Z,98485.91
2023-02-18T23:22:33.440Z,98490.64
2023-02-18T23:25:45.455Z,98513.73
2023-02-18T23:28:58.556Z,98512.18
2023-02-18T23:32:11.561Z,98515.92
2023-02-18T23:35:24.064Z,98523.28
2023-02-18T23:38:35.995Z,98523.99
2023-02-18T23:41:48.446Z,98535.80
2023-02-18T23:45:00.452Z,98542.03
2023-02-18T23:48:12.999Z,98546.52
2023-02-18T23:51:27.268Z,98543.97
2023-02-18T23:54:39.528Z,98548.31
2023-02-18T23:57:51.512Z,98546.05
